createdAt,value
2022-10-04T00:02:24.869Z,4.65
2022-10-04T00:05:16.345Z,4.80
2022-10-04T00:08:36.840Z,4.78
2022-10-04T00:11:29.313Z,4.79
2022-10-04T00:14:20.855Z,4.81
2022-10-04T00:17:14.014Z,4.66
2022-10-04T00:20:01.597Z,4.27
2022-10-04T00:23:25.501Z,4.59
2022-10-04T00:26:23.974Z,4.65
2022-10-04T00:29:35.510Z,4.65
2022-10-04T00:32:27.750Z,4.70
2022-10-04T00:35:26.730Z,4.70
2022-10-04T00:38:25.753Z,4.70
2022-10-04T00:41:13.681Z,4.73
2022-10-04T00:44:01.987Z,4.67
2022-10-04T00:46:51.658Z,4.33
2022-10-04T00:49:42.913Z,4.58
2022-10-04T00:52:34.889Z,4.05
2022-10-04T00:55:44.368Z,4.38
2022-10-04T00:58:38.248Z,4.36
2022-10-04T01:01:29.254Z,4.41
2022-10-04T01:04:27.715Z,4.30
2022-10-04T01:07:18.948Z,4.26
2022-10-04T01:10:14.517Z,4.29
2022-10-04T01:13:09.823Z,4.43
2022-10-04T01:16:17.785Z,4.53
2022-10-04T01:19:22.687Z,4.65
2022-10-04T01:22:18.066Z,4.71
2022-10-04T01:25:05.172Z,4.72
2022-10-04T01:27:52.743Z,4.61
2022-10-04T01:30:39.157Z,4.45
2022-10-04T01:33:25.950Z,4.36
2022-10-04T01:36:12.783Z,4.13
2022-10-04T01:38:59.656Z,4.45
2022-10-04T01:41:48.819Z,4.52
2022-10-04T01:44:51.161Z,4.56
2022-10-04T01:47:53.868Z,4.43
2022-10-04T01:50:47.484Z,4.58
2022-10-04T01:54:06.972Z,4.60
2022-10-04T01:56:59.100Z,4.74
2022-10-04T01:59:56.374Z,4.58
2022-10-04T02:02:55.292Z,4.78
2022-10-04T02:05:52.077Z,4.74
2022-10-04T02:08:45.728Z,4.72
2022-10-04T02:11:32.169Z,4.72
2022-10-04T02:14:22.180Z,4.50
2022-10-04T02:17:11.986Z,4.68
2022-10-04T02:20:01.515Z,4.54
2022-10-04T02:22:52.361Z,4.69
2022-10-04T02:25:39.225Z,4.52
2022-10-04T02:28:25.863Z,4.31
2022-10-04T02:31:31.153Z,4.37
2022-10-04T02:34:19.080Z,4.36
2022-10-04T02:37:07.626Z,4.31
2022-10-04T02:40:10.504Z,4.24
2022-10-04T02:43:03.571Z,4.38
2022-10-04T02:45:55.779Z,4.41
2022-10-04T02:48:56.489Z,4.31
2022-10-04T02:51:50.886Z,4.35
2022-10-04T02:54:45.942Z,4.44
2022-10-04T02:57:34.548Z,4.50
2022-10-04T03:00:23.052Z,4.43
2022-10-04T03:03:18.350Z,4.45
2022-10-04T03:06:12.472Z,4.39
2022-10-04T03:09:03.276Z,4.33
2022-10-04T03:11:51.138Z,4.22
2022-10-04T03:14:38.483Z,4.46
2022-10-04T03:17:25.561Z,4.57
2022-10-04T03:20:21.031Z,4.52
2022-10-04T03:23:09.720Z,4.44
2022-10-04T03:26:03.421Z,4.55
2022-10-04T03:28:50.502Z,4.14
2022-10-04T03:31:47.163Z,4.35
2022-10-04T03:34:37.297Z,4.35
2022-10-04T03:37:25.518Z,4.55
2022-10-04T03:40:12.499Z,4.44
2022-10-04T03:43:02.168Z,4.47
2022-10-04T03:45:49.266Z,4.55
2022-10-04T03:48:39.529Z,4.66
2022-10-04T03:51:27.148Z,4.63
2022-10-04T03:54:18.572Z,4.53
2022-10-04T03:57:06.337Z,4.36
2022-10-04T03:59:52.918Z,4.28
2022-10-04T04:02:56.416Z,4.45
2022-10-04T04:06:00.405Z,4.32
2022-10-04T04:08:51.855Z,4.28
2022-10-04T04:11:38.630Z,4.19
2022-10-04T04:14:27.449Z,4.16
2022-10-04T04:17:36.770Z,4.18
2022-10-04T04:20:36.664Z,4.14
2022-10-04T04:23:41.589Z,3.97
2022-10-04T04:26:43.614Z,4.05
2022-10-04T04:30:05.643Z,4.11
2022-10-04T04:32:56.643Z,4.17
2022-10-04T04:35:43.448Z,4.02
2022-10-04T04:38:29.957Z,4.02
2022-10-04T04:41:16.368Z,3.81
2022-10-04T04:44:04.056Z,4.14
2022-10-04T04:46:50.506Z,4.02
2022-10-04T04:49:40.107Z,3.97
2022-10-04T04:52:29.179Z,3.96
2022-10-04T04:55:39.886Z,4.18
2022-10-04T04:58:38.859Z,3.97
2022-10-04T05:01:35.238Z,4.01
2022-10-04T05:04:26.291Z,3.91
2022-10-04T05:07:19.613Z,3.92
2022-10-04T05:10:21.202Z,4.09
2022-10-04T05:13:11.140Z,4.15
2022-10-04T05:15:59.104Z,4.16
2022-10-04T05:18:46.338Z,4.17
2022-10-04T05:21:36.239Z,4.06
2022-10-04T05:24:31.762Z,4.22
2022-10-04T05:27:32.473Z,4.11
2022-10-04T05:30:24.643Z,4.34
2022-10-04T05:33:14.671Z,4.26
2022-10-04T05:36:12.103Z,4.15
2022-10-04T05:39:14.845Z,3.94
2022-10-04T05:42:26.971Z,4.36
2022-10-04T05:45:21.679Z,4.35
2022-10-04T05:48:09.049Z,4.15
2022-10-04T05:50:55.832Z,4.19
2022-10-04T05:53:42.594Z,4.32
2022-10-04T05:56:31.800Z,4.62
2022-10-04T05:59:38.980Z,4.66
2022-10-04T06:02:51.227Z,4.74
2022-10-04T06:05:43.491Z,4.87
2022-10-04T06:08:59.647Z,4.60
2022-10-04T06:12:04.331Z,4.95
2022-10-04T06:15:28.926Z,4.97
2022-10-04T06:18:21.769Z,4.93
2022-10-04T06:21:36.578Z,4.99
2022-10-04T06:24:34.852Z,5.15
2022-10-04T06:27:31.325Z,5.17
2022-10-04T06:30:19.496Z,5.21
2022-10-04T06:33:20.762Z,5.53
2022-10-04T06:36:34.195Z,5.71
2022-10-04T06:39:47.014Z,5.75
2022-10-04T06:42:56.443Z,5.84
2022-10-04T06:45:50.346Z,5.97
2022-10-04T06:48:54.180Z,6.05
2022-10-04T06:51:52.949Z,6.23
2022-10-04T06:55:06.082Z,6.36
2022-10-04T06:58:10.966Z,6.39
2022-10-04T07:01:06.590Z,6.60
2022-10-04T07:03:53.129Z,6.77
2022-10-04T07:07:20.308Z,6.40
2022-10-04T07:10:35.088Z,6.81
2022-10-04T07:13:33.114Z,6.96
2022-10-04T07:16:28.946Z,7.06
2022-10-04T07:20:00.512Z,7.20
2022-10-04T07:23:02.872Z,7.14
2022-10-04T07:25:54.399Z,7.13
2022-10-04T07:29:03.397Z,7.45
2022-10-04T07:32:21.282Z,7.56
2022-10-04T07:35:10.546Z,7.82
2022-10-04T07:38:12.800Z,7.88
2022-10-04T07:41:12.483Z,8.07
2022-10-04T07:44:05.179Z,8.12
2022-10-04T07:47:00.415Z,8.49
2022-10-04T07:49:50.924Z,8.43
2022-10-04T07:52:48.449Z,8.64
2022-10-04T07:55:44.397Z,8.64
2022-10-04T07:58:46.730Z,8.78
2022-10-04T08:01:44.299Z,8.88
2022-10-04T08:05:07.006Z,8.95
2022-10-04T08:08:14.131Z,8.83
2022-10-04T08:11:31.465Z,8.83
2022-10-04T08:14:30.918Z,8.92
2022-10-04T08:17:47.466Z,9.06
2022-10-04T08:20:56.766Z,9.13
2022-10-04T08:24:11.641Z,9.18
2022-10-04T08:27:27.578Z,9.31
2022-10-04T08:30:17.059Z,9.38
2022-10-04T08:33:22.981Z,9.49
2022-10-04T08:36:18.381Z,9.63
2022-10-04T08:39:30.434Z,9.64
2022-10-04T08:42:58.694Z,9.67
2022-10-04T08:46:04.558Z,9.79
2022-10-04T08:49:12.924Z,9.83
2022-10-04T08:52:37.330Z,10.00
2022-10-04T08:56:05.063Z,10.14
2022-10-04T08:59:20.091Z,10.32
2022-10-04T09:02:15.675Z,10.58
2022-10-04T09:05:27.300Z,10.78
2022-10-04T09:08:35.870Z,11.00
2022-10-04T09:11:30.751Z,11.02
2022-10-04T09:14:45.778Z,11.18
2022-10-04T09:17:50.983Z,11.42
2022-10-04T09:20:49.519Z,11.57
2022-10-04T09:23:57.047Z,11.85
2022-10-04T09:26:46.506Z,12.03
2022-10-04T09:29:49.065Z,12.10
2022-10-04T09:33:06.373Z,12.25
2022-10-04T09:36:20.469Z,12.39
2022-10-04T09:39:30.916Z,12.61
2022-10-04T09:42:35.952Z,12.89
2022-10-04T09:45:37.389Z,12.80
2022-10-04T09:48:36.926Z,12.89
2022-10-04T09:52:06.341Z,13.02
2022-10-04T09:55:05.259Z,13.12
2022-10-04T09:58:23.062Z,13.24
2022-10-04T10:01:18.517Z,13.13
2022-10-04T10:04:29.461Z,13.31
2022-10-04T10:07:34.674Z,13.54
2022-10-04T10:10:55.731Z,13.53
2022-10-04T10:14:19.209Z,13.65
2022-10-04T10:17:21.339Z,13.72
2022-10-04T10:20:36.285Z,13.95
2022-10-04T10:23:37.936Z,14.19
2022-10-04T10:27:02.099Z,14.14
2022-10-04T10:29:59.343Z,14.27
2022-10-04T10:33:07.588Z,14.17
2022-10-04T10:36:23.184Z,14.37
2022-10-04T10:39:23.033Z,14.65
2022-10-04T10:42:27.241Z,14.58
2022-10-04T10:45:21.239Z,14.65
2022-10-04T10:48:58.029Z,14.64
2022-10-04T10:52:22.872Z,14.68
2022-10-04T10:55:44.761Z,14.87
2022-10-04T10:58:50.076Z,14.93
2022-10-04T11:02:10.397Z,15.02
2022-10-04T11:05:23.617Z,15.03
2022-10-04T11:08:30.001Z,15.29
2022-10-04T11:12:04.144Z,15.17
2022-10-04T11:14:53.331Z,15.41
2022-10-04T11:17:58.640Z,15.52
2022-10-04T11:21:12.512Z,15.56
2022-10-04T11:24:14.865Z,15.48
2022-10-04T11:27:20.294Z,15.28
2022-10-04T11:30:25.068Z,15.43
2022-10-04T11:33:29.960Z,15.58
2022-10-04T11:36:22.495Z,15.57
2022-10-04T11:39:27.260Z,15.74
2022-10-04T11:42:32.417Z,15.82
2022-10-04T11:45:38.293Z,15.89
2022-10-04T11:48:37.742Z,15.92
2022-10-04T11:51:53.602Z,16.07
2022-10-04T11:55:06.607Z,16.23
2022-10-04T11:58:14.622Z,15.87
2022-10-04T12:01:32.074Z,16.59
2022-10-04T12:04:30.738Z,16.73
2022-10-04T12:07:38.573Z,16.91
2022-10-04T12:10:33.973Z,16.76
2022-10-04T12:14:06.666Z,16.70
2022-10-04T12:17:28.821Z,16.93
2022-10-04T12:20:28.760Z,16.89
2022-10-04T12:23:21.258Z,17.02
2022-10-04T12:26:41.459Z,17.25
2022-10-04T12:30:00.102Z,17.39
2022-10-04T12:33:10.669Z,17.31
2022-10-04T12:36:38.475Z,17.38
2022-10-04T12:39:31.109Z,17.00
2022-10-04T12:42:45.521Z,17.12
2022-10-04T12:45:57.047Z,17.35
2022-10-04T12:49:05.850Z,17.18
2022-10-04T12:52:15.351Z,17.50
2022-10-04T12:55:26.637Z,17.60
2022-10-04T12:58:43.235Z,17.66
2022-10-04T13:01:44.801Z,17.82
2022-10-04T13:04:53.281Z,18.06
2022-10-04T13:07:48.428Z,17.96
2022-10-04T13:10:59.587Z,18.15
2022-10-04T13:14:07.705Z,17.92
2022-10-04T13:17:28.116Z,18.09
2022-10-04T13:20:39.983Z,17.75
2022-10-04T13:23:36.014Z,17.97
2022-10-04T13:26:25.388Z,17.87
2022-10-04T13:29:47.546Z,17.75
2022-10-04T13:32:50.320Z,17.86
2022-10-04T13:35:49.879Z,17.85
2022-10-04T13:38:54.785Z,18.09
2022-10-04T13:42:17.298Z,17.98
2022-10-04T13:45:29.183Z,18.07
2022-10-04T13:48:44.739Z,18.14
2022-10-04T13:52:19.854Z,18.09
2022-10-04T13:55:37.617Z,18.02
2022-10-04T13:58:39.137Z,17.92
2022-10-04T14:01:25.521Z,17.80
2022-10-04T14:04:42.467Z,17.77
2022-10-04T14:07:37.982Z,17.72
2022-10-04T14:10:43.519Z,17.65
2022-10-04T14:13:57.958Z,17.60
2022-10-04T14:17:00.109Z,17.51
2022-10-04T14:20:02.483Z,17.50
2022-10-04T14:22:48.689Z,17.49
2022-10-04T14:25:51.691Z,17.55
2022-10-04T14:29:02.735Z,17.53
2022-10-04T14:32:08.168Z,17.46
2022-10-04T14:35:05.027Z,17.55
2022-10-04T14:38:04.222Z,17.51
2022-10-04T14:41:02.893Z,17.36
2022-10-04T14:44:28.577Z,17.42
2022-10-04T14:47:34.593Z,17.46
2022-10-04T14:50:27.140Z,17.45
2022-10-04T14:53:36.829Z,17.32
2022-10-04T14:56:48.591Z,17.42
2022-10-04T15:00:03.589Z,17.44
2022-10-04T15:03:02.997Z,17.35
2022-10-04T15:06:10.213Z,17.37
2022-10-04T15:09:24.236Z,17.23
2022-10-04T15:13:05.771Z,17.16
2022-10-04T15:16:01.099Z,17.17
2022-10-04T15:18:56.284Z,17.26
2022-10-04T15:22:07.697Z,17.29
2022-10-04T15:24:55.062Z,17.29
2022-10-04T15:27:50.350Z,17.17
2022-10-04T15:30:57.685Z,17.26
2022-10-04T15:33:54.595Z,17.39
2022-10-04T15:36:47.555Z,17.36
2022-10-04T15:39:53.465Z,16.72
2022-10-04T15:43:11.019Z,17.26
2022-10-04T15:46:19.076Z,17.24
2022-10-04T15:49:29.802Z,17.04
2022-10-04T15:52:38.201Z,17.05
2022-10-04T15:55:37.878Z,16.98
2022-10-04T15:59:02.675Z,16.85
2022-10-04T16:01:55.283Z,16.96
2022-10-04T16:05:24.891Z,16.77
2022-10-04T16:08:41.965Z,16.57
2022-10-04T16:11:34.173Z,16.37
2022-10-04T16:14:56.497Z,16.17
2022-10-04T16:17:48.894Z,16.05
2022-10-04T16:20:38.775Z,15.92
2022-10-04T16:23:31.711Z,15.80
2022-10-04T16:26:19.500Z,15.69
2022-10-04T16:29:30.090Z,15.49
2022-10-04T16:32:30.640Z,15.24
2022-10-04T16:35:29.489Z,15.04
2022-10-04T16:38:25.650Z,14.87
2022-10-04T16:41:16.145Z,14.56
2022-10-04T16:44:04.090Z,14.40
2022-10-04T16:46:52.592Z,14.26
2022-10-04T16:49:50.046Z,14.11
2022-10-04T16:52:58.269Z,13.95
2022-10-04T16:55:56.070Z,13.86
2022-10-04T16:58:49.747Z,13.58
2022-10-04T17:02:21.205Z,13.63
2022-10-04T17:05:22.700Z,13.48
2022-10-04T17:08:15.214Z,13.49
2022-10-04T17:11:41.893Z,13.34
2022-10-04T17:14:50.930Z,13.19
2022-10-04T17:17:49.552Z,13.04
2022-10-04T17:20:42.117Z,12.89
2022-10-04T17:23:50.625Z,12.74
2022-10-04T17:26:50.263Z,12.58
2022-10-04T17:29:48.653Z,12.47
2022-10-04T17:32:55.174Z,12.42
2022-10-04T17:36:05.604Z,12.35
2022-10-04T17:38:54.871Z,12.27
2022-10-04T17:41:50.463Z,12.18
2022-10-04T17:44:40.944Z,12.13
2022-10-04T17:47:56.338Z,11.99
2022-10-04T17:51:20.955Z,11.85
2022-10-04T17:54:31.761Z,11.74
2022-10-04T17:57:25.368Z,11.68
2022-10-04T18:00:14.320Z,11.58
2022-10-04T18:03:10.060Z,11.49
2022-10-04T18:06:01.986Z,11.42
2022-10-04T18:08:57.641Z,11.39
2022-10-04T18:11:53.402Z,11.30
2022-10-04T18:15:06.059Z,11.25
2022-10-04T18:18:10.239Z,11.18
2022-10-04T18:20:56.581Z,11.20
2022-10-04T18:23:56.039Z,11.12
2022-10-04T18:26:59.635Z,11.05
2022-10-04T18:30:02.703Z,10.84
2022-10-04T18:32:55.805Z,10.80
2022-10-04T18:36:05.172Z,10.74
2022-10-04T18:39:14.486Z,10.68
2022-10-04T18:42:23.410Z,10.53
2022-10-04T18:45:30.981Z,10.52
2022-10-04T18:48:19.473Z,10.47
2022-10-04T18:51:30.096Z,10.43
2022-10-04T18:54:35.269Z,10.41
2022-10-04T18:58:00.936Z,10.38
2022-10-04T19:01:16.961Z,10.29
2022-10-04T19:04:12.966Z,10.16
2022-10-04T19:07:20.886Z,10.19
2022-10-04T19:10:16.706Z,10.20
2022-10-04T19:13:20.316Z,10.06
2022-10-04T19:16:16.039Z,10.08
2022-10-04T19:19:25.977Z,10.02
2022-10-04T19:23:03.551Z,9.95
2022-10-04T19:26:26.265Z,9.88
2022-10-04T19:29:26.407Z,9.79
2022-10-04T19:32:18.758Z,9.87
2022-10-04T19:35:34.262Z,9.78
2022-10-04T19:38:32.495Z,9.70
2022-10-04T19:41:27.854Z,9.73
2022-10-04T19:44:51.959Z,9.67
2022-10-04T19:48:11.060Z,9.59
2022-10-04T19:51:15.999Z,9.48
2022-10-04T19:54:15.983Z,9.49
2022-10-04T19:57:05.401Z,9.46
2022-10-04T19:59:51.878Z,9.33
2022-10-04T20:02:45.968Z,9.30
2022-10-04T20:05:46.055Z,9.26
2022-10-04T20:08:47.636Z,9.31
2022-10-04T20:11:37.253Z,9.26
2022-10-04T20:14:23.797Z,9.25
2022-10-04T20:17:10.056Z,9.19
2022-10-04T20:19:56.523Z,9.01
2022-10-04T20:22:52.278Z,9.15
2022-10-04T20:25:45.505Z,9.11
2022-10-04T20:28:41.746Z,9.07
2022-10-04T20:31:27.951Z,9.01
2022-10-04T20:34:36.861Z,8.81
2022-10-04T20:37:45.125Z,8.88
2022-10-04T20:40:34.731Z,8.84
2022-10-04T20:43:26.506Z,8.82
2022-10-04T20:46:23.504Z,8.78
2022-10-04T20:49:16.645Z,8.83
2022-10-04T20:52:03.003Z,8.73
2022-10-04T20:54:53.433Z,8.76
2022-10-04T20:57:40.647Z,8.71
2022-10-04T21:00:29.360Z,8.68
2022-10-04T21:03:18.212Z,8.70
2022-10-04T21:06:08.334Z,8.56
2022-10-04T21:08:54.959Z,8.55
2022-10-04T21:11:46.192Z,8.55
2022-10-04T21:14:37.589Z,8.49
2022-10-04T21:17:30.152Z,8.45
2022-10-04T21:21:04.544Z,8.36
2022-10-04T21:23:50.924Z,8.34
2022-10-04T21:26:37.396Z,8.30
2022-10-04T21:29:23.636Z,8.29
2022-10-04T21:32:10.474Z,8.29
2022-10-04T21:34:57.116Z,8.23
2022-10-04T21:37:43.349Z,8.15
2022-10-04T21:40:29.721Z,8.13
2022-10-04T21:43:16.151Z,8.16
2022-10-04T21:46:02.546Z,8.11
2022-10-04T21:48:49.460Z,8.07
2022-10-04T21:51:37.255Z,8.07
2022-10-04T21:54:23.753Z,7.98
2022-10-04T21:57:10.775Z,7.97
2022-10-04T21:59:57.146Z,7.92
2022-10-04T22:02:43.567Z,7.90
2022-10-04T22:05:30.535Z,7.84
2022-10-04T22:08:17.194Z,7.78
2022-10-04T22:11:03.629Z,7.76
2022-10-04T22:13:51.095Z,7.75
2022-10-04T22:16:37.774Z,7.64
2022-10-04T22:19:24.216Z,7.65
2022-10-04T22:22:17.408Z,7.64
2022-10-04T22:25:13.542Z,7.59
2022-10-04T22:28:00.197Z,7.59
2022-10-04T22:30:47.379Z,7.57
2022-10-04T22:33:35.428Z,7.53
2022-10-04T22:36:32.671Z,7.34
2022-10-04T22:39:20.515Z,7.49
2022-10-04T22:42:07.520Z,7.51
2022-10-04T22:44:53.915Z,7.50
2022-10-04T22:47:40.087Z,7.44
2022-10-04T22:50:33.527Z,7.46
2022-10-04T22:53:22.204Z,7.42
2022-10-04T22:56:09.182Z,7.25
2022-10-04T22:58:55.653Z,7.19
2022-10-04T23:01:42.944Z,7.32
2022-10-04T23:04:29.312Z,7.30
2022-10-04T23:07:15.920Z,7.25
2022-10-04T23:10:02.337Z,7.25
2022-10-04T23:12:54.948Z,7.20
2022-10-04T23:15:41.937Z,7.16
2022-10-04T23:18:30.270Z,7.12
2022-10-04T23:21:22.674Z,7.08
2022-10-04T23:24:18.708Z,7.08
2022-10-04T23:27:17.259Z,7.00
2022-10-04T23:30:04.244Z,7.04
2022-10-04T23:32:53.187Z,7.06
2022-10-04T23:35:39.591Z,7.02
2022-10-04T23:38:25.978Z,7.07
2022-10-04T23:41:12.164Z,7.02
2022-10-04T23:43:58.513Z,7.04
2022-10-04T23:46:45.158Z,6.97
2022-10-04T23:49:31.901Z,7.06
2022-10-04T23:52:24.916Z,6.95
2022-10-04T23:55:19.375Z,6.93
2022-10-04T23:58:13.681Z,6.91
